Wetterdaten: aktuell Mittwoch, 28.09.2022 02:30
Datum Zeit Temp. Dach 2 mtr. Höhe Boden Feuchte ISS Feuchte 2mtr Luftdruck Regen Wind Richtung Richtung Sonnenschein T Regen ET Solar Taupunkt Windchill Windböen Empfang
28.09.2022 02:30 7,5 °C 7,8 °C 7,2 °C 94 % 91 % 995,9 hPa 3,0 l/m² 11,5 km/h (2 Bft) S-SO 162 ° 0 min 55 min 0,000 mm 0 W/m² 6,4 °C 5,4 °C 20,9 km/h (4 Bft) 97,50 %
28.09.2022 01:30 7,7 °C 7,8 °C 7,2 °C 92 % 90 % 996,4 hPa 1,0 l/m² 7,4 km/h (2 Bft) S-SO 166 ° 0 min 25 min 0,000 mm 0 W/m² 6,3 °C 6,4 °C 11,3 km/h (2 Bft) 96,67 %
28.09.2022 00:30 7,9 °C 7,8 °C 7,8 °C 90 % 88 % 997,1 hPa 0,0 l/m² 4,5 km/h (1 Bft) S 184 ° 0 min 0 min 0,000 mm 0 W/m² 5,9 °C 7,9 °C 9,7 km/h (2 Bft) 99,19 %
27.09.2022 23:30 8,2 °C 7,8 °C 7,2 °C 89 % 86 % 997,1 hPa 0,0 l/m² 7,3 km/h (2 Bft) S-SW 194 ° 0 min 0 min 0,000 mm 0 W/m² 5,6 °C 7,1 °C 14,5 km/h (3 Bft) 97,20 %
27.09.2022 22:30 8,5 °C 8,3 °C 7,8 °C 89 % 86 % 997,4 hPa 0,0 l/m² 6,0 km/h (2 Bft) SW 225 ° 0 min 0 min 0,000 mm 0 W/m² 6,1 °C 7,7 °C 9,7 km/h (2 Bft) 96,67 %
27.09.2022 21:30 8,8 °C 8,9 °C 8,3 °C 89 % 86 % 997,5 hPa 0,0 l/m² 7,8 km/h (2 Bft) SW 236 ° 0 min 0 min 0,000 mm 0 W/m² 6,7 °C 7,6 °C 14,5 km/h (3 Bft) 99,17 %
27.09.2022 20:30 9,3 °C 9,4 °C 8,9 °C 88 % 85 % 997,4 hPa 0,0 l/m² 8,5 km/h (2 Bft) SW 218 ° 0 min 0 min 0,000 mm 0 W/m² 7,0 °C 8,1 °C 14,5 km/h (3 Bft) 100,00 %
27.09.2022 19:30 9,6 °C 10,0 °C 9,4 °C 89 % 85 % 997,4 hPa 0,0 l/m² 6,9 km/h (2 Bft) SW 222 ° 0 min 0 min 0,025 mm 0 W/m² 7,6 °C 8,8 °C 14,5 km/h (3 Bft) 95,00 %
27.09.2022 18:30 9,8 °C 10,0 °C 9,4 °C 87 % 83 % 997,4 hPa 0,0 l/m² 13,1 km/h (3 Bft) W-SW 257 ° 0 min 0 min 0,076 mm 24 W/m² 7,2 °C 7,9 °C 20,9 km/h (4 Bft) 100,00 %
27.09.2022 17:30 9,8 °C 10,0 °C 9,4 °C 81 % 77 % 997,1 hPa 0,0 l/m² 12,4 km/h (3 Bft) W 273 ° 0 min 0 min 0,102 mm 70 W/m² 6,2 °C 8,0 °C 22,5 km/h (4 Bft) 99,19 %
27.09.2022 16:30 10,4 °C 10,6 °C 9,4 °C 84 % 80 % 996,8 hPa 0,0 l/m² 24,2 km/h (4 Bft) W-SW 244 ° 15 min 0 min 0,101 mm 112 W/m² 7,3 °C 10,4 °C 40,2 km/h (6 Bft) 96,80 %
27.09.2022 15:30 9,8 °C 10,6 °C 8,9 °C 83 % 79 % 996,8 hPa 0,2 l/m² 24,7 km/h (4 Bft) W-SW 243 ° 15 min 5 min 0,001 mm 62 W/m² 7,1 °C 6,7 °C 46,7 km/h (6 Bft) 96,33 %
27.09.2022 14:30 11,4 °C 11,7 °C 10,6 °C 80 % 80 % 996,2 hPa 0,4 l/m² 13,1 km/h (3 Bft) W-NW 286 ° 0 min 10 min 0,178 mm 129 W/m² 8,4 °C 11,4 °C 25,7 km/h (4 Bft) 100,00 %
27.09.2022 13:25 11,0 °C 11,7 °C 9,4 °C 79 % 76 % 996,1 hPa 0,2 l/m² 28,0 km/h (4 Bft) NW 325 ° 20 min 5 min 0,304 mm 259 W/m² 7,6 °C 11,0 °C 40,2 km/h (6 Bft) 96,67 %
27.09.2022 12:25 11,1 °C 11,7 °C 10,6 °C 81 % 79 % 996,3 hPa 0,0 l/m² 20,7 km/h (4 Bft) W-SW 250 ° 20 min 0 min 0,127 mm 611 W/m² 8,2 °C 11,1 °C 37,0 km/h (5 Bft) 99,17 %
27.09.2022 11:25 10,6 °C 10,6 °C 10,0 °C 84 % 82 % 996,4 hPa 0,0 l/m² 20,5 km/h (4 Bft) W 263 ° 15 min 0 min 0,127 mm 94 W/m² 7,7 °C 10,6 °C 30,6 km/h (5 Bft) 99,17 %
27.09.2022 10:25 9,9 °C 10,0 °C 10,0 °C 89 % 86 % 996,2 hPa 0,0 l/m² 22,9 km/h (4 Bft) SW 232 ° 0 min 0 min 0,077 mm 183 W/m² 7,8 °C 7,0 °C 40,2 km/h (6 Bft) 97,50 %
27.09.2022 09:25 9,1 °C 9,4 °C 8,9 °C 91 % 88 % 995,6 hPa 0,0 l/m² 24,8 km/h (4 Bft) SW 232 ° 0 min 0 min 0,025 mm 135 W/m² 7,5 °C 5,8 °C 37,0 km/h (5 Bft) 98,32 %
27.09.2022 08:25 9,2 °C 8,9 °C 8,9 °C 93 % 90 % 994,8 hPa 0,0 l/m² 19,8 km/h (3 Bft) SW 236 ° 0 min 0 min 0,000 mm 32 W/m² 7,4 °C 6,4 °C 35,4 km/h (5 Bft) 97,48 %
27.09.2022 07:25 9,2 °C 9,4 °C 8,9 °C 94 % 91 % 994,4 hPa 0,0 l/m² 21,6 km/h (4 Bft) NW 319 ° 0 min 0 min 0,000 mm 0 W/m² 8,0 °C 6,2 °C 33,8 km/h (5 Bft) 98,33 %
27.09.2022 06:25 9,5 °C 9,4 °C 8,9 °C 95 % 91 % 993,8 hPa 0,0 l/m² 20,7 km/h (4 Bft) W 277 ° 0 min 0 min 0,000 mm 0 W/m² 8,0 °C 6,7 °C 30,6 km/h (5 Bft) 99,17 %
27.09.2022 05:25 9,7 °C 10,0 °C 9,4 °C 96 % 92 % 993,6 hPa 0,6 l/m² 15,3 km/h (3 Bft) W 263 ° 0 min 15 min 0,000 mm 0 W/m² 8,8 °C 7,5 °C 19,3 km/h (3 Bft) 99,17 %
27.09.2022 04:25 9,9 °C 10,0 °C 9,4 °C 96 % 92 % 993,4 hPa 0,6 l/m² 12,0 km/h (2 Bft) W-SW 240 ° 0 min 15 min 0,000 mm 0 W/m² 8,8 °C 8,2 °C 22,5 km/h (4 Bft) 95,04 %
27.09.2022 03:25 10,2 °C 10,6 °C 10,0 °C 96 % 93 % 993,4 hPa 1,0 l/m² 7,1 km/h (2 Bft) W-NW 286 ° 0 min 20 min 0,000 mm 0 W/m² 9,5 °C 10,2 °C 16,1 km/h (3 Bft) 100,00 %
27.09.2022 03:00 10,1 °C 10,0 °C 10,0 °C 96 % 92 % 993,3 hPa 0,0 l/m² 6,6 km/h (2 Bft) W-SW 248 ° 0 min 0 min 0,000 mm 0 W/m² 8,8 °C 10,1 °C 11,3 km/h (2 Bft) 96,69 %
_ Min-Zeit 02:30 23:15 23:15 12:55 12:55 03:00 - 23:05 - - - - - - 23:15 02:30 23:05 16:40
Minimum _ 7,5 °C 7,8 °C 6,7 °C 76 % 73 % 993,3 hPa - 3,5 km/h (1 Bft) - - - - - - 5,4 °C 5,4 °C 8,0 km/h (2 Bft) 92,59 %
_ Max-Zeit 12:45 12:45 12:45 03:00 03:20 18:35 03:20 15:20 - - 10:35 03:10 13:05 12:50 03:20 12:45 15:20 03:10
Maximum _ 11,7 °C 12,2 °C 12,8 °C 96 % 93 % 997,5 hPa 0,4 l/m² 40,5 km/h
W (6 Bft)
- - 5 min 5 min 0,304 mm 704 W/m² 9,5 °C 11,7 °C 64,4 km/h
W-NW (8 Bft)
100,00 %
Durchschnitt _ 9,6 °C 9,7 °C 9,2 °C 89 % 86 % 995,8 hPa #7,0 l/m² 14,5 km/h (3 Bft) W - #0 min. #1:20 h #0,000 mm 0 W/m² 7,5 °C 8,5 °C 23,5 km/h (4 Bft) 98,02 %